Nearby METAR Reports

 

KSJC - San Jose, California, USA
Distance from station: СИ 14km
Актуализирано: 16/08/2022 20:53
Тихо и ясно
Тихо и ясно
 Вятър от С
Вятър: С 7 km/h
Температура: 28°C
Heat Index: 28°C
Точка на оросяване: 14°C
Влажност: 42%
Барометър: 1009.1 hPa
Clouds: Тихо и ясно
Visibility: 16 km
2022/08/16 18:53 KSJC 161853Z 35004KT 10SM CLR 28/14 A2980 RMK AO2 SLP089 T02830144 $
KNUQ - Moffett Nas/Mtn, California, USA
Distance from station: С 14km
Актуализирано: 16/08/2022 21:35
Тихо и ясно
Тихо и ясно
 Вятър от С
Вятър: С 7 km/h
Температура: 28°C
Heat Index: 28°C
Точка на оросяване: 14°C
Влажност: 42%
Барометър: 1008.8 hPa
Clouds: Тихо и ясно
Visibility: 14 km
2022/08/16 19:35 KNUQ 161935Z AUTO 01004KT 9SM CLR 28/14 A2979 RMK AO2
 
KPAO - Palo Alto, California, USA
Distance from station: ССЗ 23km
Актуализирано: 16/08/2022 21:47
Тихо и ясно
Тихо и ясно
 Вятър от С
Вятър: С 15 km/h
Температура: 26°C
Точка на оросяване: 16°C
Влажност: 54%
Барометър: 1009.1 hPa
Clouds: Тихо и ясно
Visibility: 16 km
2022/08/16 19:47 KPAO 161947Z 01008KT 10SM SKC 26/16 A2980
KRHV - San Jose/Reid, California, USA
Distance from station: ИСИ 19km
Актуализирано: 16/08/2022 21:47
Тихо и ясно
Тихо и ясно
 Вятър от calm
Вятър: Тихо
Температура: 32°C
Точка на оросяване: 12°C
Влажност: 29%
Барометър: 1008.8 hPa
Clouds: Тихо и ясно
Visibility: 16 km
2022/08/16 19:47 KRHV 161947Z 00000KT 10SM SKC 32/12 A2979
 
KOAK - Oakland, California, USA
Distance from station: ССЗ 50km
Актуализирано: 16/08/2022 20:53
Тихо и ясно
Тихо и ясно
 Вятър от З
Вятър: З 11 km/h
Температура: 23°C
Точка на оросяване: 15°C
Влажност: 61%
Барометър: 1009.5 hPa
Clouds: Тихо и ясно
Visibility: 16 km
2022/08/16 18:53 KOAK 161853Z 26006KT 10SM CLR 23/15 A2981 RMK AO2 SLP094 T02280150
KSQL - San Carlos Airpo, California, USA
Distance from station: СЗ 34km
Актуализирано: 16/08/2022 21:47
Тихо и ясно
Тихо и ясно
 Вятър от calm
Вятър: Тихо
Температура: 28°C
Heat Index: 28°C
Точка на оросяване: 15°C
Влажност: 45%
Барометър: 1009.1 hPa
Clouds: Тихо и ясно
Visibility: 16 km
2022/08/16 19:47 KSQL 161947Z 00000KT 10SM CLR 28/15 A2980
 
KSFO - San Francisco, California, USA
Distance from station: СЗ 49km
Актуализирано: 16/08/2022 21:47
Few Clouds
Few Clouds
 Вятър от ССИ
Вятър: ССИ 11 km/h
Температура: 24°C
Точка на оросяване: 16°C
Влажност: 61%
Барометър: 1008.8 hPa
Clouds: Few Clouds
Visibility: 16 km
Cloud details: Few Clouds 183 m
2022/08/16 19:47 KSFO 161947Z 02006KT 10SM FEW006 24/16 A2979 RMK AO2 T02390161
KE16 - San Martin, California, USA
Distance from station: ИЮИ 43km
Актуализирано: 16/08/2022 21:35
Тихо и ясно
Тихо и ясно
 Вятър от ЮЮИ
Вятър: ЮЮИ 6 km/h
Температура: 32°C
Точка на оросяване: 8°C
Влажност: 22%
Барометър: 1009.5 hPa
Clouds: Тихо и ясно
Visibility: 16 km
2022/08/16 19:35 KE16 161935Z AUTO 15003KT 10SM CLR 32/08 A2981 RMK AO2
 
KWVI - Watsonville, California, USA
Distance from station: ЮЮИ 44km
Актуализирано: 16/08/2022 20:53
Тихо и ясно
Тихо и ясно
 Вятър от ЮЗ
Вятър: ЮЗ 11 km/h
Температура: 23°C
Точка на оросяване: 13°C
Влажност: 53%
Барометър: 1010.5 hPa
Clouds: Тихо и ясно
Visibility: 16 km
2022/08/16 18:53 KWVI 161853Z AUTO 23006KT 10SM CLR 23/13 A2984 RMK AO2 SLP104 T02280133
KHAF - Half Moon Bay, California, USA
Distance from station: ЗСЗ 50km
Актуализирано: 16/08/2022 21:35
Частична облачност
Частична облачност
 Вятър от Ю
Вятър: Ю 13 km/h
Температура: 15°C
Точка на оросяване: 13°C
Влажност: 88%
Барометър: 1010.8 hPa
Clouds: Частична облачност
Visibility: 14 km
Cloud details: Частична облачност 152 m
2022/08/16 19:35 KHAF 161935Z AUTO 17007KT 9SM SCT005 15/13 A2985 RMK AO2
 
KHWD - Hayward, California, USA
Distance from station: С 44km
Актуализирано: 16/08/2022 20:54
Тихо и ясно
Тихо и ясно
 Вятър от З
Вятър: З 9 km/h
Температура: 26°C
Точка на оросяване: 16°C
Влажност: 54%
Барометър: 1009.1 hPa
Clouds: Тихо и ясно
Visibility: 16 km
2022/08/16 18:54 KHWD 161854Z 27005KT 10SM CLR 26/16 A2980 RMK AO2 SLP100 T02560161
KLVK - Livermore, California, USA
Distance from station: ССИ 51km
Актуализирано: 16/08/2022 20:53
Тихо и ясно
Тихо и ясно
 Вятър от varies
Вятър: varies 6 km/h
Температура: 34°C
Точка на оросяване: 7°C
Влажност: 19%
Барометър: 1008.8 hPa
Clouds: Тихо и ясно
Visibility: 16 km
2022/08/16 18:53 KLVK 161853Z VRB03KT 10SM CLR 34/07 A2979 RMK AO2 SLP082 T03440067 $